Bodensee (Kressbronn): 6,1°C  -  Teich der Wetterzentrale Bad Schussenried: 5,6°C |  Schneehöhe Kreuzthal-Steinberg (930 m ü. NN): 8 cm   
01.04.2020Höhe
ü. NN
ZeitTemperatur (°C)Nieder-
schlag
Luft-
feuchte
Luft-
druck
Wind
StationaktuellMinimumMaximumaktuellMaximum
Aldingen654 m08:01-4,6-5,7 (07:28)-0,3 (16:02)0,0 l/m²83%1023,30,0 km/h (0 Bft) W29,6 km/h (5 Bft) W (14:48)
Allmendingen541 m08:00-5,7-6,7 (07:05)-2,1 (15:10)0,0 l/m²89%1023,01,6 km/h (1 Bft) O-SO35,4 km/h (5 Bft) O (15:35)
Altshausen574 m08:00-3,3-4,1 (06:33)-1,1 (00:16)0,0 l/m²67%1020,58,0 km/h (2 Bft) N-NW12,9 km/h (3 Bft) N-NO (07:34)
Amstetten-Reutti663 m08:00-4,1-4,7 (07:05)-1,5 (16:55)0,0 l/m²88%1022,71,6 km/h (1 Bft) W-SW48,3 km/h (6 Bft) W (15:55)
Amtzell-Grenis677 m08:00-2,3-4,1 (06:05)-1,4 (00:00)0,0 l/m²59%1022,89,7 km/h (2 Bft) NO12,9 km/h (3 Bft) N (06:45)
Aulendorf570 m08:00-2,4-3,2 (07:05)-0,5 (00:00)0,0 l/m²71%1021,511,3 km/h (2 Bft) NO17,7 km/h (3 Bft) O-NO (07:06)
Bad Krozingen233 m08:00-1,1-2,3 (06:50)3,7 (16:05)0,0 l/m²75%1023,66,9 km/h (2 Bft) S-SW38,1 km/h (5 Bft) N (17:05)
Bad Saulgau595 m08:00-4,4-5,2 (06:35)-1,9 (15:00)0,0 l/m²89%1021,40,0 km/h (0 Bft) S-SO25,7 km/h (4 Bft) S (11:35)
Bad Saulgau, Mannsgrab588 m08:03-3,4-6,1 (05:34)-1,7 (00:17)0,0 l/m²83%1023,70,0 km/h (0 Bft) N0,0 km/h (0 Bft) N (00:00)
Bad Saulgau-Lampertsweiler627 m08:00-3,3-4,8 (06:15)0,2 (00:00)0,0 l/m²81%1024,514,5 km/h (3 Bft) N-NW22,5 km/h (4 Bft) N-NW (01:15)
Bad Schussenried572 m08:00-3,2-4,4 (07:30)-1,1 (00:00)0,0 l/m²88%1021,00,0 km/h (0 Bft) NO9,7 km/h (2 Bft) NO (03:15)
Bergatreute615 m08:00-3,0-4,1 (07:20)0,0 (00:00)0,0 l/m²87%1021,68,0 km/h (2 Bft) N-NO17,7 km/h (3 Bft) O (01:55)
Biberach (Riss), Boehringer533 m08:10-3,7-4,4 (07:00)-1,1 (00:30)0,0 l/m²88%1021,85,4 km/h (1 Bft) N12,2 km/h (3 Bft) N-NO (08:00)
Biberach (Riss), Realschule553 m08:00-3,7-4,3 (07:15)-0,3 (00:00)0,0 l/m²88%1023,58,0 km/h (2 Bft) N-NO12,9 km/h (3 Bft) N (06:05)
Burgrieden523 m08:00-4,0-4,4 (07:30)-0,4 (00:00)0,0 l/m²83%1022,74,8 km/h (1 Bft) O-NO11,3 km/h (2 Bft) O-NO (07:40)
Burgrieden-Hochstetten510 m08:00-3,2-4,8 (06:50)-0,9 (15:40)0,0 l/m²89%1023,06,4 km/h (2 Bft) N-NO25,7 km/h (4 Bft) NO (12:55)
Donauwörth411 m08:00-3,8-4,6 (07:15)-1,1 (00:00)0,0 l/m²80%1023,80,0 km/h (0 Bft) N0,0 km/h (0 Bft) N (08:00)
Ebersbach579 m08:00-3,0-4,0 (07:15)-0,1 (00:00)0,0 l/m²87%1022,98,0 km/h (2 Bft) N16,1 km/h (3 Bft) NO (01:25)
Ebersbach-Boos605 m08:00-3,7-4,7 (07:15)-0,1 (00:00)0,0 l/m²89%1022,716,1 km/h (3 Bft) NO22,5 km/h (4 Bft) O (01:00)
Ebersbach-Menzenweiler661 m08:00-3,5-3,9 (06:20)-0,6 (00:00)0,0 l/m²88%1022,716,1 km/h (3 Bft) N-NO24,1 km/h (4 Bft) O-NO (01:05)
Ehingen535 m01:10-2,5-2,5 (01:10)-1,3 (00:05)0,0 l/m²70%1025,40,0 km/h (0 Bft) N-NO5,0 km/h (1 Bft) N-NO (00:15)
Erlenmoos645 m08:00-4,3-4,5 (07:40)-0,9 (00:00)0,0 l/m²88%1022,50,0 km/h (0 Bft) NO12,9 km/h (3 Bft) O-NO (01:35)
Ertingen569 m08:00-2,7-3,7 (06:55)-0,6 (00:00)0,0 l/m²83%1022,79,7 km/h (2 Bft) N16,1 km/h (3 Bft) N-NO (04:10)
Friedrichshafen405 m07:55-1,1-1,9 (07:00)0,9 (13:30)0,0 l/m²79%1022,614,5 km/h (3 Bft) N27,4 km/h (4 Bft) NO (15:10)
Günzburg443 m08:00-3,5-5,3 (07:20)-1,1 (00:00)0,0 l/m²89%1020,80,0 km/h (0 Bft) NO0,0 km/h (0 Bft) NO (00:00)
Hochdorf-Appendorf537 m08:00-3,9-6,3 (07:30)-1,7 (00:15)0,0 l/m²66%1022,58,0 km/h (2 Bft) N-NO14,5 km/h (3 Bft) N-NW (03:20)
Höchsten802 m08:00-4,1-4,7 (07:10)-1,4 (00:00)0,0 l/m²84%1020,59,7 km/h (2 Bft) O-NO25,7 km/h (4 Bft) NO (02:45)
Horgenzell618 m08:00-1,9-1,9 (03:45)-0,6 (00:05)0,0 l/m²76%1020,34,8 km/h (1 Bft) N-NO19,3 km/h (3 Bft) N-NO (00:50)
Hoßkirch632 m08:00-5,6-6,7 (07:25)-1,0 (00:15)0,0 l/m²91%1021,54,8 km/h (1 Bft) SW14,5 km/h (3 Bft) O-NO (00:20)
Isny, Am Dreifingerbach695 m08:00-3,1-6,2 (06:25)0,1 (01:00)0,0 l/m²83%1021,43,2 km/h (1 Bft) NW14,5 km/h (3 Bft) O-NO (01:05)
Isny, Weidachweg706 m08:00-4,4-5,3 (07:10)0,3 (00:25)0,0 l/m²78%1023,60,0 km/h (0 Bft) W12,9 km/h (3 Bft) W (00:10)
Kappel-Grafenhausen163 m07:55-1,9-2,1 (07:10)3,3 (14:55)0,0 l/m²82%1021,26,4 km/h (2 Bft) N30,6 km/h (5 Bft) N-NO (16:55)
Kißlegg-Staibshof709 m08:00-3,2-3,8 (07:10)-0,9 (00:00)0,0 l/m²82%1022,40,0 km/h (0 Bft) NO14,5 km/h (3 Bft) O (01:50)
Kressbronn398 m08:02-2,6-2,8 (07:20)1,4 (00:00)0,0 l/m²80%1021,30,0 km/h (0 Bft) NO22,5 km/h (4 Bft) NO (00:54)
Kreuzthal-Steinberg-Alpe930 m08:00-3,3-4,9 (06:50)-2,5 (00:00)0,0 l/m²84%1022,01,8 km/h (1 Bft) O22,0 km/h (4 Bft) W-NW (00:10)
Kreuzthal-Steinberggipfel1040 m08:00-2,0-4,0 (02:20)-1,6 (08:00)-69%1022,07,6 km/h (2 Bft) O-SO37,1 km/h (5 Bft) O-SO (00:10)
Kristberg im Montafon (AT)1425 m08:00-5,7-6,6 (04:51)-5,3 (00:40)0,0 l/m²50%1026,10,0 km/h (0 Bft) N10,1 km/h (2 Bft) NO (01:47)
Laupheim500 m08:00-2,9-4,0 (06:35)0,0 (00:00)0,0 l/m²82%1022,19,7 km/h (2 Bft) NO9,7 km/h (2 Bft) O-SO (00:20)
Leutkirch-Heggelbach670 m08:00-4,4-4,9 (07:00)-2,6 (00:30)0,0 l/m²89%1021,50,0 km/h (0 Bft) NO8,0 km/h (2 Bft) N-NO (03:30)
Lindau-Insel420 m08:00-0,9-1,8 (07:25)1,8 (14:55)0,0 l/m²72%1021,74,8 km/h (1 Bft) O-NO29,0 km/h (5 Bft) NO (17:05)
Lindau-Stadt412 m08:00-1,6-2,4 (06:45)1,2 (14:55)0,0 l/m²74%1021,84,8 km/h (1 Bft) N33,8 km/h (5 Bft) N-NO (15:40)
Maierhöfen im Allgäu733 m08:00-3,8-5,9 (07:30)-1,2 (01:35)0,0 l/m²86%1021,90,0 km/h (0 Bft) NW25,7 km/h (4 Bft) O-SO (02:05)
Maselheim543 m08:00-4,7-5,4 (07:05)-2,3 (13:20)0,0 l/m²87%1023,00,0 km/h (0 Bft) N24,1 km/h (4 Bft) O-NO (15:20)
Maselheim-Sulmingen548 m08:00-4,6-5,7 (07:15)-2,2 (15:15)0,0 l/m²90%1024,30,0 km/h (0 Bft) NW20,9 km/h (4 Bft) N-NO (12:15)
Mietingen-Baltringen528 m08:00-4,1-5,0 (06:35)-1,3 (00:45)0,0 l/m²87%1024,60,0 km/h (0 Bft) O-NO4,8 km/h (1 Bft) N-NO (01:20)
Mindelheim-Apfeltrach620 m07:56-6,2-6,3 (07:40)-2,7 (00:00)0,0 l/m²89%1024,00,0 km/h (0 Bft) NO0,0 km/h (0 Bft) O-NO (00:00)
Mittelbiberach577 m08:01-3,5-4,6 (06:56)-1,0 (00:16)0,0 l/m²83%1023,83,2 km/h (1 Bft) NO12,8 km/h (3 Bft) NO (05:56)
Neresheim552 m08:00-7,0-7,3 (07:00)-2,0 (00:00)0,0 l/m²92%1021,40,0 km/h (0 Bft) O4,0 km/h (1 Bft) NO (01:00)
Neukirch570 m08:00-2,5-3,4 (07:15)-0,9 (14:35)0,0 l/m²81%1022,06,4 km/h (2 Bft) N-NO37,0 km/h (5 Bft) N-NO (11:55)
Ochsenhausen, Birkenstraße613 m07:55-5,7-5,7 (08:00)-2,2 (12:50)0,0 l/m²83%1023,20,0 km/h (0 Bft) O-SO1,6 km/h (1 Bft) SW (08:00)
Ochsenhausen, Unt. Wiesen575 m08:00-4,9-5,7 (06:15)-2,4 (00:00)0,0 l/m²87%1024,20,0 km/h (0 Bft) NO4,8 km/h (1 Bft) NO (00:00)
Opfenbach-Göritz561 m08:02-4,9-5,8 (07:19)-2,8 (00:00)0,0 l/m²79%1019,91,4 km/h (1 Bft) N-NO6,5 km/h (2 Bft) O-NO (00:18)
Ostrach619 m08:00-3,3-3,8 (04:15)-0,6 (00:00)0,0 l/m²89%1021,06,4 km/h (2 Bft) N12,9 km/h (3 Bft) N-NW (06:30)
Ravensburg, Goethestraße428 m08:00-1,7-2,2 (07:20)1,3 (00:00)0,0 l/m²81%1021,816,1 km/h (3 Bft) N-NO17,7 km/h (3 Bft) NO (06:45)
Ravensburg-Wernsreute511 m08:00-2,2-3,4 (07:00)0,0 (15:50)0,0 l/m²82%1024,920,9 km/h (4 Bft) N35,4 km/h (5 Bft) N-NO (11:45)
Reichenbach an der Fils343 m08:00-2,9-2,9 (07:50)1,0 (00:00)0,0 l/m²79%1025,21,6 km/h (1 Bft) SO12,9 km/h (3 Bft) O-SO (05:10)
Riedlingen530 m08:00-2,8-3,6 (07:05)-1,0 (00:00)0,0 l/m²80%1022,80,0 km/h (0 Bft) O-NO0,0 km/h (0 Bft) N (00:00)
Rißtissen489 m08:00-2,6-3,5 (07:10)-0,2 (00:00)0,0 l/m²87%1020,53,2 km/h (1 Bft) O-NO8,0 km/h (2 Bft) O-NO (03:30)
Rottweil-Hausen681 m07:59-3,8-4,7 (06:55)-1,9 (00:00)0,0 l/m²84%1024,06,5 km/h (2 Bft) W-NW9,7 km/h (2 Bft) S-SW (07:27)
Schemmerhofen520 m08:00-2,8-3,3 (07:35)2,7 (00:00)0,0 l/m²87%1021,76,4 km/h (2 Bft) NO8,0 km/h (2 Bft) NO (07:55)
Silbertal im Montafon (AT)884 m08:01-4,3-4,7 (07:15)-1,6 (00:01)0,0 l/m²84%1026,10,0 km/h (0 Bft) O-NO0,0 km/h (0 Bft) O-NO (00:00)
Tettnang466 m08:04-2,4-2,4 (07:48)1,0 (00:00)0,0 l/m²78%1021,90,0 km/h (0 Bft) W-NW16,2 km/h (3 Bft) O-SO (01:07)
Tuttlingen648 m07:56-4,0-4,5 (06:31)-2,1 (00:01)0,0 l/m²78%1023,20,0 km/h (0 Bft) NW5,2 km/h (1 Bft) W-SW (03:26)
Tuttlingen, Möhringer-Vorstadt711 m08:00-4,4-5,1 (07:45)-2,4 (16:05)0,0 l/m²84%1022,73,2 km/h (1 Bft) O-NO25,7 km/h (4 Bft) N-NW (12:35)
Ummendorf547 m08:00-3,7-5,1 (07:20)-0,7 (00:10)0,0 l/m²68%1023,70,0 km/h (0 Bft) O-NO16,1 km/h (3 Bft) O (01:05)
Ummendorf-Fischbach558 m08:00-4,7-5,4 (06:15)-1,9 (01:25)0,0 l/m²69%1023,60,0 km/h (0 Bft) NO6,4 km/h (2 Bft) O-NO (07:15)
Waldburg707 m08:00-2,8-3,5 (06:50)-0,8 (00:00)0,0 l/m²78%1021,58,0 km/h (2 Bft) N19,3 km/h (3 Bft) N (02:35)
Waltenhofen im Allgäu720 m08:00-6,4-8,0 (07:25)-2,2 (01:05)0,0 l/m²92%1022,30,0 km/h (0 Bft) W17,7 km/h (3 Bft) W (11:50)
Wangen, Südring548 m08:01-2,6-4,2 (06:51)-0,3 (00:00)0,0 l/m²80%1021,56,5 km/h (2 Bft) NO13,0 km/h (3 Bft) NO (01:25)
Warthausen-Birkenhard581 m07:59-3,8-4,4 (06:32)-1,2 (00:00)0,0 l/m²86%1023,610,1 km/h (2 Bft) N-NO13,7 km/h (3 Bft) NO (06:13)
Winterlingen785 m08:00-4,4-5,6 (06:30)-2,8 (01:00)0,0 l/m²80%1021,90,0 km/h (0 Bft) N3,6 km/h (1 Bft) NO (00:55)

Werbung
niederschlagsdatenbank | info | login - erfassung

Sollten Sie Interesse haben, an der Niederschlagsdatenbank teilzunehmen, finden Sie > hier < weitere Informationen.

Niederschlagsdaten der Station Krauchenwies-Hausen - Rosenrain 1

Josef Brugger

Niederschlagsstation aufgenommen ins Stationsnetz der Wetterwarte Süd am 13.09.2010
Monat: .
Anmerkung:0,0 = nicht messbarer Niederschlag
 -  = kein Niederschlag

Stationsdaten

Höhe

628 m

Lage

Auf Google Maps ansehen

Beschreibung

Hausen liegt mit 628 m über NN südlich der Donau zwischen Sigmaringen und Pfullendorf im Andelsbachtal.
< Oktober 2013Dezember 2013 >

November 2013

TagNiederschlagBemerkung
01.6,2
02.13,4
03.5,2
04.1,4
05.-
06.9,8
07.-
08.10,2
09.-
10.-
11.-
12.-
13.-
14.-
15.-
16.-
17.-
18.-
19.4,3
20.3,6
21.4,7
22.-
23.7,5
24.-
25.-
26.-
27.-
28.-
29.-
30.-
Gesamt:66,3 
Die Spalten "Tag" und "Niederschlag" lassen sich durch Klicken auf den Spaltenkopf sortieren.
Die Angaben sind in l/m².

< Oktober 2013Dezember 2013 >


Monats- und Jahresniederschlag


Wetterbeobachtungen Legende:

  • Regen
  • Nieselregen
  • Schneeregen
  • Schnee
  • Graupel
  • Eiskörner
  • Hagel
  • Bodennebel
  • Gewitter
  • Nebelnässe
  • Schneegriesel

Grafische Darstellung der Niederschläge der Station Krauchenwies-Hausen November 2013

 
wetterstationen
wetterstationen
- derzeit 83 Stationen
niederschlagsdatenbank
wetterstationen
- kartographische Darstellung
niederschlagsdatenbank
niederschlagsstationen
- derzeit 112 Stationen
niederschlagsdatenbank
niederschlagsstationen
- kartographische Darstellung
 
  treffpunkt & service
--- Anzeigen --------------------------------
zugriffe:
insgesamt: 46.624.123
aktueller monat: 1.312
heute: 1.312
momentan online: 65
 
 
monatshöchstwert: 653.625
vorheriger monat: 364.213
gestern: 13.565
tageshöchstwert: 57.073
 
wetterwarte süd
 
konradstraße 3
info@wetterwarte-sued.com
roland roth
 
88427 bad schussenried